Time;durP1;ratioP1;P1;durP2;ratioP2;P2;SDS_P1;SDS_P2;PMS_P1;PMS_P2;Temp;Humidity;BMP_temperature;BMP_pressure;BME280_temperature;BME280_humidity;BME280_pressure;Samples;Min_cycle;Max_cycle;Signal;HPM_P1;HPM_P2
2021/06/16 00:00:19;;;;;;;13.45;4.45;;;16.10;99.90;;;;;;5075408;28;20023;-66
2021/06/16 00:02:45;;;;;;;10.00;4.50;;;16.10;99.90;;;;;;5075602;28;20108;-65
2021/06/16 00:05:15;;;;;;;9.60;5.00;;;16.10;99.90;;;;;;5075515;28;20451;-66
2021/06/16 00:07:41;;;;;;;6.75;5.10;;;16.10;99.90;;;;;;5090591;28;20021;-65
2021/06/16 00:10:09;;;;;;;10.77;4.68;;;16.00;99.90;;;;;;5057603;28;20025;-65
2021/06/16 00:12:35;;;;;;;11.88;4.55;;;15.90;99.90;;;;;;5075422;28;20036;-65
2021/06/16 00:15:01;;;;;;;8.75;4.53;;;15.80;99.90;;;;;;5073713;28;20086;-66
2021/06/16 00:17:26;;;;;;;10.73;4.72;;;15.80;99.90;;;;;;5075059;28;20033;-65
2021/06/16 00:19:52;;;;;;;8.43;4.97;;;15.80;99.90;;;;;;5075068;28;20043;-65
2021/06/16 00:22:17;;;;;;;11.60;5.03;;;15.70;99.90;;;;;;5074980;28;20385;-66
2021/06/16 00:24:43;;;;;;;7.55;4.43;;;15.70;99.90;;;;;;5073661;28;20021;-66
2021/06/16 00:27:09;;;;;;;8.90;4.22;;;15.70;99.90;;;;;;5073985;28;20415;-66
2021/06/16 00:29:35;;;;;;;8.15;5.28;;;15.70;99.90;;;;;;5074003;28;20484;-65
2021/06/16 00:32:00;;;;;;;16.40;5.38;;;15.70;99.90;;;;;;5073868;28;20096;-65
2021/06/16 00:34:27;;;;;;;11.23;5.10;;;15.80;99.90;;;;;;5075018;28;20377;-65
2021/06/16 00:36:52;;;;;;;12.75;5.45;;;15.80;99.90;;;;;;5074033;28;20454;-65
2021/06/16 00:39:18;;;;;;;9.13;5.53;;;15.80;99.90;;;;;;5074935;28;20035;-66
2021/06/16 00:41:44;;;;;;;8.98;4.80;;;15.80;99.90;;;;;;5074605;28;20078;-65
2021/06/16 00:44:11;;;;;;;10.52;5.10;;;15.80;99.90;;;;;;5074535;28;20025;-66
2021/06/16 00:46:37;;;;;;;15.88;5.40;;;15.70;99.90;;;;;;5074801;28;20052;-66
2021/06/16 00:49:04;;;;;;;8.80;4.97;;;15.60;99.90;;;;;;5074770;28;20028;-66
2021/06/16 00:51:29;;;;;;;8.57;5.25;;;15.60;99.90;;;;;;5074645;28;20450;-66
2021/06/16 00:53:55;;;;;;;10.20;5.18;;;15.60;99.90;;;;;;5074668;28;20025;-66
2021/06/16 00:56:21;;;;;;;14.73;5.13;;;15.60;99.90;;;;;;5073112;28;20025;-66
2021/06/16 00:58:47;;;;;;;12.02;5.70;;;15.60;99.90;;;;;;5074287;28;20103;-66
2021/06/16 01:04:15;;;;;;;7.20;4.72;;;15.60;99.90;;;;;;5128135;27;20133;-65
2021/06/16 01:06:44;;;;;;;12.65;5.00;;;15.60;99.90;;;;;;5111367;28;20453;-67
2021/06/16 01:09:19;;;;;;;10.63;4.95;;;15.60;99.90;;;;;;5111873;28;20012;-65
2021/06/16 01:11:59;;;;;;;12.10;4.97;;;15.70;99.90;;;;;;5111857;28;20020;-66
2021/06/16 01:15:02;;;;;;;9.20;5.22;;;15.70;99.90;;;;;;5109992;28;20020;-66
2021/06/16 01:17:34;;;;;;;7.07;4.80;;;15.60;99.90;;;;;;5111648;28;20027;-66
2021/06/16 01:20:11;;;;;;;9.13;5.90;;;15.50;99.90;;;;;;5111431;28;20016;-66
2021/06/16 01:22:55;;;;;;;10.05;5.10;;;15.50;99.90;;;;;;5111529;28;20027;-66
2021/06/16 01:25:28;;;;;;;8.57;4.97;;;15.40;99.90;;;;;;5111034;28;20016;-66
2021/06/16 01:27:54;;;;;;;18.95;6.05;;;15.30;99.90;;;;;;5111611;28;20099;-66
2021/06/16 01:30:21;;;;;;;11.25;5.72;;;15.30;99.90;;;;;;5111477;28;20046;-66
2021/06/16 01:32:48;;;;;;;9.20;5.95;;;15.30;99.90;;;;;;5111453;28;20119;-66
2021/06/16 01:35:13;;;;;;;11.88;5.57;;;15.40;99.90;;;;;;5110840;28;20034;-66
2021/06/16 01:37:40;;;;;;;12.15;5.93;;;15.30;99.90;;;;;;5111062;28;20107;-66
2021/06/16 01:40:06;;;;;;;10.35;6.15;;;15.30;99.90;;;;;;5092647;28;20030;-65
2021/06/16 01:42:32;;;;;;;12.00;6.32;;;15.30;99.90;;;;;;5110943;28;20028;-66
2021/06/16 01:44:59;;;;;;;11.63;6.20;;;15.30;99.90;;;;;;5110956;28;20024;-66
2021/06/16 01:47:25;;;;;;;12.18;5.68;;;15.30;99.90;;;;;;5111192;28;20369;-66
2021/06/16 01:49:55;;;;;;;12.00;6.15;;;15.30;99.90;;;;;;5111135;28;20123;-66
2021/06/16 01:52:24;;;;;;;16.02;6.30;;;15.30;99.90;;;;;;5111088;28;20035;-65
2021/06/16 01:54:50;;;;;;;12.63;6.28;;;15.30;99.90;;;;;;5110063;28;20062;-65
2021/06/16 01:57:17;;;;;;;10.52;6.03;;;15.30;99.90;;;;;;5111022;28;20027;-66
2021/06/16 01:59:45;;;;;;;8.93;5.72;;;15.30;99.90;;;;;;5109141;28;20169;-66
2021/06/16 02:02:11;;;;;;;8.82;6.25;;;15.30;99.90;;;;;;5109058;28;20130;-66
2021/06/16 02:04:37;;;;;;;11.18;6.55;;;15.20;99.90;;;;;;5110843;28;20052;-66
2021/06/16 02:07:15;;;;;;;10.25;6.07;;;15.20;99.90;;;;;;5110834;28;20473;-66
2021/06/16 02:09:42;;;;;;;11.43;5.85;;;15.20;99.90;;;;;;5110447;28;20024;-66
2021/06/16 02:12:11;;;;;;;11.38;6.35;;;15.20;99.90;;;;;;5110732;28;20144;-66
2021/06/16 02:14:41;;;;;;;10.77;5.75;;;15.20;99.90;;;;;;5100748;28;20431;-66
2021/06/16 02:17:11;;;;;;;13.10;5.60;;;15.10;99.90;;;;;;5095268;28;20082;-65
2021/06/16 02:19:38;;;;;;;8.05;5.47;;;15.10;99.90;;;;;;5095540;28;20393;-66
2021/06/16 02:22:05;;;;;;;7.97;5.30;;;15.10;99.90;;;;;;5096871;28;20032;-66
2021/06/16 02:24:31;;;;;;;11.20;6.72;;;15.10;99.90;;;;;;5095454;28;20020;-66
2021/06/16 02:26:57;;;;;;;11.38;6.47;;;15.00;99.90;;;;;;5096603;28;20133;-66
2021/06/16 02:29:26;;;;;;;11.70;6.22;;;15.00;99.90;;;;;;5096515;28;20032;-66
2021/06/16 02:31:51;;;;;;;8.93;6.70;;;14.90;99.90;;;;;;5096461;28;20020;-66
2021/06/16 02:34:19;;;;;;;14.02;6.95;;;14.90;99.90;;;;;;5096711;28;20085;-66
2021/06/16 02:36:46;;;;;;;11.68;6.38;;;14.80;99.90;;;;;;5078198;28;20020;-66
2021/06/16 02:39:16;;;;;;;9.38;6.47;;;14.70;99.90;;;;;;5096329;28;20059;-66
2021/06/16 02:41:43;;;;;;;14.50;6.15;;;14.80;99.90;;;;;;5096505;28;20020;-65
2021/06/16 02:44:10;;;;;;;11.98;6.53;;;14.70;99.90;;;;;;5095027;28;20035;-66
2021/06/16 02:46:38;;;;;;;11.45;6.18;;;14.70;99.90;;;;;;5094994;28;20035;-66
2021/06/16 02:49:06;;;;;;;7.95;6.15;;;14.60;99.90;;;;;;5096147;28;20103;-66
2021/06/16 02:51:33;;;;;;;9.50;6.97;;;14.60;99.90;;;;;;5096337;28;20020;-66
2021/06/16 02:54:00;;;;;;;12.82;6.88;;;14.60;99.90;;;;;;5096042;28;20373;-66
2021/06/16 02:56:26;;;;;;;11.88;6.72;;;14.50;99.90;;;;;;5096253;28;20016;-66
2021/06/16 02:58:54;;;;;;;7.55;6.32;;;14.50;99.90;;;;;;5096251;28;20043;-66
2021/06/16 03:01:21;;;;;;;10.10;6.53;;;14.50;99.90;;;;;;5096167;28;20453;-66
2021/06/16 03:03:50;;;;;;;9.88;6.53;;;14.40;99.90;;;;;;5095302;28;20076;-66
2021/06/16 03:06:19;;;;;;;13.27;6.30;;;14.40;99.90;;;;;;5094916;28;20016;-66
2021/06/16 03:08:47;;;;;;;15.05;6.57;;;14.40;99.90;;;;;;5096042;28;20365;-66
2021/06/16 03:11:13;;;;;;;10.15;6.43;;;14.30;99.90;;;;;;5094531;28;20051;-66
2021/06/16 03:13:40;;;;;;;11.88;6.68;;;14.30;99.90;;;;;;5095333;28;20028;-66
2021/06/16 03:16:06;;;;;;;9.88;6.25;;;14.30;99.90;;;;;;5094730;28;20032;-66
2021/06/16 03:18:32;;;;;;;15.98;7.20;;;14.30;99.90;;;;;;5094386;28;20354;-66
2021/06/16 03:20:59;;;;;;;12.95;6.35;;;14.30;99.90;;;;;;5095231;28;20059;-66
2021/06/16 03:23:26;;;;;;;10.30;6.72;;;14.20;99.90;;;;;;5095657;28;20028;-66
2021/06/16 03:25:56;;;;;;;10.07;6.30;;;14.20;99.90;;;;;;5076314;28;20020;-66
2021/06/16 03:28:23;;;;;;;9.23;6.40;;;14.20;99.90;;;;;;5094226;28;20016;-66
2021/06/16 03:30:52;;;;;;;12.02;6.50;;;14.30;99.90;;;;;;5095287;28;20103;-66
2021/06/16 03:33:18;;;;;;;8.63;6.18;;;14.30;99.90;;;;;;5095491;28;20028;-66
2021/06/16 03:35:44;;;;;;;12.45;6.63;;;14.30;99.90;;;;;;5095498;28;20027;-66
2021/06/16 03:38:10;;;;;;;14.52;6.90;;;14.30;99.90;;;;;;5095413;28;20032;-66
2021/06/16 03:40:36;;;;;;;9.65;6.68;;;14.30;99.90;;;;;;5094892;28;20031;-66
2021/06/16 03:43:02;;;;;;;14.43;6.78;;;14.30;99.90;;;;;;5095271;28;20047;-66
2021/06/16 03:45:29;;;;;;;12.82;6.88;;;14.40;99.90;;;;;;5095012;28;20369;-65
2021/06/16 03:47:57;;;;;;;10.60;6.60;;;14.50;99.90;;;;;;5095014;28;20523;-66
2021/06/16 03:50:24;;;;;;;10.02;6.40;;;14.60;99.90;;;;;;5094944;28;20016;-66
2021/06/16 03:52:50;;;;;;;14.68;7.32;;;14.70;99.90;;;;;;5095112;28;20077;-66
2021/06/16 03:55:17;;;;;;;13.18;7.10;;;14.70;99.90;;;;;;5093677;28;20062;-66
2021/06/16 03:57:44;;;;;;;19.13;7.50;;;14.70;99.90;;;;;;5093635;28;20066;-66
2021/06/16 04:00:11;;;;;;;13.45;6.93;;;14.80;99.90;;;;;;5093790;28;20024;-66
2021/06/16 04:02:37;;;;;;;12.55;6.85;;;14.90;99.90;;;;;;5094508;28;20539;-66
2021/06/16 04:05:04;;;;;;;11.40;6.63;;;14.90;99.90;;;;;;5094738;28;20111;-66
2021/06/16 04:07:31;;;;;;;9.70;6.10;;;15.00;99.90;;;;;;5093661;28;20024;-66
2021/06/16 04:09:57;;;;;;;13.20;6.85;;;15.20;99.90;;;;;;5093727;28;20020;-66
2021/06/16 04:12:24;;;;;;;11.20;6.28;;;15.20;99.90;;;;;;5094854;28;20024;-66
2021/06/16 04:14:50;;;;;;;11.68;6.80;;;15.40;99.90;;;;;;5094808;28;20020;-66
2021/06/16 04:17:18;;;;;;;12.05;6.22;;;15.50;99.90;;;;;;5094788;28;20166;-66
2021/06/16 04:19:44;;;;;;;10.93;6.10;;;15.80;99.90;;;;;;5094734;28;20077;-66
2021/06/16 04:22:09;;;;;;;10.95;6.20;;;15.90;99.90;;;;;;5094344;28;20024;-66
2021/06/16 04:24:35;;;;;;;15.32;6.63;;;15.90;99.90;;;;;;5093194;28;20438;-66
2021/06/16 04:27:01;;;;;;;11.55;6.88;;;16.20;99.90;;;;;;5094037;28;20028;-66
2021/06/16 04:29:26;;;;;;;9.80;6.15;;;16.30;99.90;;;;;;5094567;28;20422;-66
2021/06/16 04:31:52;;;;;;;10.93;6.60;;;16.60;99.90;;;;;;5094537;28;20062;-66
2021/06/16 04:34:18;;;;;;;12.07;6.53;;;17.00;99.90;;;;;;5094170;28;20020;-66
2021/06/16 04:36:43;;;;;;;9.90;6.32;;;17.40;99.90;;;;;;5094222;28;20028;-66
2021/06/16 04:39:09;;;;;;;10.02;5.78;;;17.80;99.90;;;;;;5076389;28;20066;-66
2021/06/16 04:41:35;;;;;;;8.20;5.22;;;18.50;99.90;;;;;;5094648;28;20012;-66
2021/06/16 04:44:01;;;;;;;11.13;5.97;;;18.80;99.90;;;;;;5094061;28;19908;-66
2021/06/16 04:46:27;;;;;;;11.43;5.47;;;19.20;99.90;;;;;;5094302;28;20107;-66
2021/06/16 04:48:52;;;;;;;9.45;5.35;;;19.90;99.90;;;;;;5093726;28;20035;-67
2021/06/16 04:51:18;;;;;;;9.15;4.88;;;20.50;99.90;;;;;;5094279;28;20045;-66
2021/06/16 04:53:44;;;;;;;10.23;5.35;;;21.00;99.90;;;;;;5093958;28;20051;-66
2021/06/16 04:56:09;;;;;;;7.95;5.30;;;21.10;99.90;;;;;;5092367;28;20024;-66
2021/06/16 04:58:35;;;;;;;7.75;4.40;;;21.20;99.90;;;;;;5093833;28;20183;-66
2021/06/16 05:01:01;;;;;;;6.95;4.78;;;21.10;99.90;;;;;;5093895;28;20024;-66
2021/06/16 05:03:26;;;;;;;14.20;5.32;;;21.10;99.90;;;;;;5092188;28;20052;-66
2021/06/16 05:05:52;;;;;;;9.27;5.18;;;21.30;99.90;;;;;;5092638;28;20016;-67
2021/06/16 05:08:17;;;;;;;9.45;4.50;;;21.50;99.90;;;;;;5093786;28;20012;-66
2021/06/16 05:10:43;;;;;;;6.68;4.40;;;22.30;99.90;;;;;;5092892;28;20034;-67
2021/06/16 05:13:08;;;;;;;7.47;4.22;;;22.30;99.90;;;;;;5094002;28;20024;-66
2021/06/16 05:15:34;;;;;;;6.75;4.40;;;22.40;99.90;;;;;;5092818;28;20036;-66
2021/06/16 05:18:00;;;;;;;11.63;4.75;;;22.60;99.90;;;;;;5092484;28;20095;-66
2021/06/16 05:20:26;;;;;;;9.45;4.75;;;22.40;99.90;;;;;;5093793;28;20097;-66
2021/06/16 05:22:52;;;;;;;8.00;4.43;;;22.60;99.90;;;;;;5091975;28;20028;-66
2021/06/16 05:25:17;;;;;;;9.77;4.90;;;22.60;99.90;;;;;;5093633;28;20016;-66
2021/06/16 05:27:44;;;;;;;5.43;4.25;;;22.90;99.90;;;;;;5092456;28;20426;-66
2021/06/16 05:30:10;;;;;;;6.78;4.50;;;23.30;99.90;;;;;;5093591;28;20052;-66
2021/06/16 05:32:36;;;;;;;7.60;4.45;;;23.60;99.90;;;;;;5093268;28;20059;-66
2021/06/16 05:35:03;;;;;;;9.90;3.90;;;23.90;99.90;;;;;;5093858;28;20434;-66
2021/06/16 05:37:29;;;;;;;8.40;3.90;;;23.50;99.90;;;;;;5092327;28;20028;-66
2021/06/16 05:39:54;;;;;;;13.43;4.43;;;23.00;99.90;;;;;;5093507;28;20085;-66
2021/06/16 05:42:20;;;;;;;8.25;4.43;;;22.90;99.90;;;;;;5093369;28;20028;-67
2021/06/16 05:44:45;;;;;;;8.77;4.50;;;22.60;99.90;;;;;;5092230;28;20026;-67
2021/06/16 05:47:11;;;;;;;7.60;4.47;;;23.10;99.90;;;;;;5093664;28;20020;-67
2021/06/16 05:49:36;;;;;;;9.68;4.28;;;23.70;99.90;;;;;;5093877;28;20034;-66
2021/06/16 05:52:02;;;;;;;12.45;4.43;;;24.20;99.90;;;;;;5097412;28;20028;-67
2021/06/16 05:54:28;;;;;;;7.63;4.10;;;23.90;99.90;;;;;;5097336;28;20031;-66
2021/06/16 05:56:54;;;;;;;9.82;4.07;;;24.00;99.90;;;;;;5095592;28;20024;-66
2021/06/16 05:59:19;;;;;;;7.75;3.83;;;24.80;99.90;;;;;;5097303;28;20024;-67
2021/06/16 06:01:45;;;;;;;8.07;3.53;;;24.70;99.90;;;;;;5096880;28;20056;-67
2021/06/16 06:04:10;;;;;;;10.10;4.25;;;24.80;99.90;;;;;;5095168;28;20058;-67
2021/06/16 06:06:36;;;;;;;6.57;3.80;;;24.60;99.90;;;;;;5094740;28;20385;-67
2021/06/16 06:09:05;;;;;;;7.53;3.90;;;25.30;99.90;;;;;;5096627;28;20028;-67
2021/06/16 06:11:33;;;;;;;8.27;3.78;;;25.30;99.90;;;;;;5074454;28;20458;-66
2021/06/16 06:13:59;;;;;;;5.25;3.75;;;24.90;99.90;;;;;;5088645;28;20428;-66
2021/06/16 06:16:24;;;;;;;10.10;4.03;;;25.20;99.90;;;;;;5078330;28;20024;-66
2021/06/16 06:18:50;;;;;;;11.27;3.58;;;24.20;99.90;;;;;;5094758;28;20448;-67
2021/06/16 06:21:16;;;;;;;4.35;3.22;;;24.30;99.90;;;;;;5094498;28;20508;-66
2021/06/16 06:23:41;;;;;;;7.38;3.40;;;24.50;99.90;;;;;;5091664;28;20028;-66
2021/06/16 06:26:07;;;;;;;5.85;3.67;;;24.30;99.90;;;;;;5091887;28;20070;-67
2021/06/16 06:28:32;;;;;;;7.90;3.67;;;24.60;99.90;;;;;;5086360;28;20028;-66
2021/06/16 06:30:58;;;;;;;6.93;3.60;;;24.40;99.90;;;;;;5088566;28;20224;-66
2021/06/16 06:33:23;;;;;;;7.35;3.22;;;24.90;99.90;;;;;;5096241;28;20073;-67
2021/06/16 06:35:49;;;;;;;9.95;3.53;;;25.70;99.90;;;;;;5094903;28;20028;-66
2021/06/16 06:38:14;;;;;;;9.05;3.80;;;25.50;99.50;;;;;;5078245;28;20428;-67
2021/06/16 06:40:41;;;;;;;9.13;3.70;;;25.20;99.90;;;;;;5082653;28;20113;-67
2021/06/16 06:43:07;;;;;;;6.63;3.42;;;25.30;99.50;;;;;;5106157;28;20358;-67
2021/06/16 06:45:33;;;;;;;6.80;3.47;;;25.30;99.90;;;;;;5084805;28;20062;-67
2021/06/16 06:47:59;;;;;;;7.40;3.42;;;25.60;99.90;;;;;;5083975;28;20036;-67
2021/06/16 06:50:24;;;;;;;10.35;4.20;;;25.90;99.80;;;;;;5096084;28;20127;-68
2021/06/16 06:52:51;;;;;;;7.65;4.32;;;25.90;99.40;;;;;;5080155;28;20474;-67
2021/06/16 06:55:17;;;;;;;5.65;3.45;;;26.30;99.10;;;;;;5087832;28;20039;-66
2021/06/16 06:57:44;;;;;;;9.35;3.80;;;27.10;97.70;;;;;;5088837;28;20038;-68
2021/06/16 07:00:11;;;;;;;6.50;3.38;;;26.40;98.80;;;;;;5074762;28;20020;-69
2021/06/16 07:02:37;;;;;;;6.30;3.33;;;25.80;99.30;;;;;;5097459;28;20106;-69
2021/06/16 07:05:03;;;;;;;8.57;3.63;;;25.90;99.10;;;;;;5077632;28;20398;-69
2021/06/16 07:07:29;;;;;;;5.20;2.88;;;25.40;99.90;;;;;;5079132;28;20024;-69
2021/06/16 07:09:54;;;;;;;7.72;3.63;;;25.60;99.90;;;;;;5092525;28;20138;-69
2021/06/16 07:12:21;;;;;;;6.43;3.50;;;25.90;99.70;;;;;;5086516;28;20028;-68
2021/06/16 07:14:46;;;;;;;8.82;3.30;;;26.40;99.30;;;;;;5075465;28;20477;-69
2021/06/16 07:17:12;;;;;;;5.47;3.60;;;27.00;97.80;;;;;;5078120;28;20043;-69
2021/06/16 07:19:38;;;;;;;5.30;3.00;;;27.40;96.60;;;;;;5076969;28;20029;-68
2021/06/16 07:22:04;;;;;;;5.93;3.00;;;27.60;97.10;;;;;;5084796;28;20033;-68
2021/06/16 07:24:30;;;;;;;5.72;3.17;;;28.30;97.00;;;;;;5090573;28;20024;-69
2021/06/16 07:26:56;;;;;;;7.60;3.60;;;27.60;98.10;;;;;;5080816;28;20043;-69
2021/06/16 07:29:22;;;;;;;6.35;3.55;;;27.40;97.80;;;;;;5090088;28;20020;-72
2021/06/16 07:31:48;;;;;;;4.95;3.70;;;26.60;98.50;;;;;;5085384;28;20112;-74
2021/06/16 07:34:14;;;;;;;5.70;3.72;;;27.40;98.00;;;;;;5076217;28;20052;-74
2021/06/16 07:36:39;;;;;;;6.70;3.45;;;26.90;97.70;;;;;;5088174;28;20054;-74
2021/06/16 07:39:05;;;;;;;9.15;4.00;;;27.10;97.80;;;;;;5076089;28;20515;-74
2021/06/16 07:41:31;;;;;;;6.43;3.83;;;27.30;97.70;;;;;;5090056;28;20032;-74
2021/06/16 07:43:57;;;;;;;7.03;4.38;;;26.80;98.00;;;;;;5092263;28;20494;-74
2021/06/16 07:46:22;;;;;;;8.32;3.97;;;28.20;97.70;;;;;;5071838;28;20028;-72
2021/06/16 07:48:50;;;;;;;6.25;3.47;;;28.80;96.00;;;;;;5082446;28;20043;-74
2021/06/16 07:51:17;;;;;;;7.95;4.78;;;29.40;94.40;;;;;;5090394;28;20020;-74
2021/06/16 07:53:42;;;;;;;7.43;4.03;;;29.80;94.20;;;;;;5082415;28;20384;-75
2021/06/16 07:56:08;;;;;;;5.93;3.58;;;30.10;93.80;;;;;;5086097;28;20056;-74
2021/06/16 07:58:34;;;;;;;7.65;3.75;;;29.70;94.10;;;;;;5084492;28;20021;-75
2021/06/16 08:00:59;;;;;;;7.65;4.05;;;29.60;94.50;;;;;;5092073;28;20024;-74
2021/06/16 08:03:25;;;;;;;7.85;4.00;;;28.80;94.10;;;;;;5083501;28;20040;-74
2021/06/16 08:05:51;;;;;;;7.85;4.00;;;29.20;93.80;;;;;;5062415;28;20040;-74
2021/06/16 08:08:17;;;;;;;9.73;4.13;;;29.60;92.80;;;;;;5084580;28;20037;-74
2021/06/16 08:10:43;;;;;;;7.53;4.25;;;29.70;92.80;;;;;;5090532;28;20035;-74
2021/06/16 08:13:09;;;;;;;6.95;3.65;;;29.80;92.40;;;;;;5085144;28;20037;-74
2021/06/16 08:15:35;;;;;;;6.43;3.50;;;29.50;92.70;;;;;;5076972;28;20037;-74
2021/06/16 08:18:01;;;;;;;5.90;3.33;;;30.10;92.90;;;;;;5089095;28;20017;-74
2021/06/16 08:20:27;;;;;;;7.32;4.10;;;30.20;92.90;;;;;;5089162;28;20034;-74
2021/06/16 08:22:52;;;;;;;7.13;3.50;;;29.70;92.30;;;;;;5081936;28;20110;-73
2021/06/16 08:25:18;;;;;;;5.10;3.60;;;29.80;93.50;;;;;;5079306;28;20024;-73
2021/06/16 08:27:44;;;;;;;8.82;3.85;;;30.50;90.80;;;;;;5092292;28;20032;-73
2021/06/16 08:30:12;;;;;;;8.15;4.32;;;30.60;91.20;;;;;;5090622;28;20016;-74
2021/06/16 08:32:38;;;;;;;6.57;4.03;;;30.30;90.40;;;;;;5080979;28;20027;-73
2021/06/16 08:35:04;;;;;;;7.45;3.67;;;30.10;91.00;;;;;;5078040;28;20392;-74
2021/06/16 08:37:30;;;;;;;6.70;4.30;;;30.30;92.00;;;;;;5103287;28;20027;-74
2021/06/16 08:39:55;;;;;;;7.93;3.50;;;30.50;90.10;;;;;;5080567;28;20028;-74
2021/06/16 08:42:21;;;;;;;7.50;4.10;;;30.70;90.70;;;;;;5092704;28;20429;-73
2021/06/16 08:44:53;;;;;;;7.07;3.67;;;30.40;90.10;;;;;;5089805;28;20393;-74
2021/06/16 08:47:21;;;;;;;6.30;4.35;;;30.50;89.80;;;;;;5087762;28;20358;-74
2021/06/16 08:49:47;;;;;;;6.07;3.83;;;31.00;90.30;;;;;;5082647;28;20469;-73
2021/06/16 08:52:12;;;;;;;8.48;3.50;;;31.10;89.60;;;;;;5092715;28;20032;-74
2021/06/16 08:54:38;;;;;;;7.35;3.90;;;30.50;91.00;;;;;;5088325;28;20587;-74
2021/06/16 08:57:04;;;;;;;9.50;3.70;;;30.60;90.00;;;;;;5082276;28;20107;-73
2021/06/16 08:59:30;;;;;;;8.57;3.75;;;31.20;88.50;;;;;;5085186;28;20024;-74
2021/06/16 09:01:56;;;;;;;8.75;3.83;;;31.50;86.80;;;;;;5056953;28;20052;-73
2021/06/16 09:04:42;;;;;;;5.85;3.10;;;31.70;87.30;;;;;;5083793;28;20109;-74
2021/06/16 09:07:13;;;;;;;6.15;3.85;;;32.60;85.30;;;;;;5088358;28;20385;-73
2021/06/16 09:09:39;;;;;;;7.05;3.53;;;32.30;82.20;;;;;;5084359;28;20025;-73
2021/06/16 09:12:06;;;;;;;3.85;3.05;;;32.00;85.90;;;;;;5071652;28;20382;-73
2021/06/16 09:14:32;;;;;;;4.43;3.38;;;31.20;85.40;;;;;;5080135;28;20047;-73
2021/06/16 09:17:03;;;;;;;8.43;3.80;;;31.50;83.10;;;;;;5071550;28;20395;-74
2021/06/16 09:19:32;;;;;;;7.03;4.13;;;32.00;82.30;;;;;;5085149;28;20032;-73
2021/06/16 09:22:00;;;;;;;6.97;3.55;;;32.50;79.40;;;;;;5078845;28;20029;-73
2021/06/16 09:24:44;;;;;;;7.30;3.80;;;31.80;83.70;;;;;;5079972;28;20051;-73
2021/06/16 09:27:10;;;;;;;7.70;3.63;;;32.10;84.00;;;;;;5076450;28;20035;-73
2021/06/16 09:29:36;;;;;;;5.32;3.40;;;32.90;81.60;;;;;;5094719;28;20359;-73
2021/06/16 09:32:04;;;;;;;4.57;3.20;;;33.50;79.80;;;;;;5076521;28;20103;-74
2021/06/16 09:34:30;;;;;;;5.90;3.40;;;33.60;80.00;;;;;;5078549;28;20024;-73
2021/06/16 09:37:03;;;;;;;7.05;3.40;;;32.50;78.40;;;;;;5094732;28;20034;-73
2021/06/16 09:39:30;;;;;;;7.45;3.47;;;32.60;79.00;;;;;;5091882;28;20024;-73
2021/06/16 09:42:01;;;;;;;7.68;3.78;;;33.10;81.00;;;;;;5087177;28;20028;-75
2021/06/16 09:44:48;;;;;;;5.75;3.45;;;33.30;78.60;;;;;;5093360;28;20019;-74
2021/06/16 09:47:17;;;;;;;4.70;3.35;;;33.10;76.10;;;;;;5076066;28;20021;-75
2021/06/16 09:50:00;;;;;;;8.15;3.63;;;33.30;76.20;;;;;;5083537;28;20028;-74
2021/06/16 09:52:34;;;;;;;6.93;3.67;;;33.30;77.40;;;;;;5091430;28;20031;-75
2021/06/16 09:55:01;;;;;;;5.43;4.00;;;33.20;76.30;;;;;;5093613;28;20028;-74
2021/06/16 09:57:27;;;;;;;5.28;3.55;;;33.40;75.50;;;;;;5093753;28;20374;-75
2021/06/16 09:59:59;;;;;;;8.82;3.78;;;34.30;75.70;;;;;;5079958;28;20026;-73
2021/06/16 10:02:29;;;;;;;4.25;3.78;;;34.90;75.30;;;;;;5093755;28;20036;-73
2021/06/16 10:04:57;;;;;;;4.60;3.28;;;34.60;73.50;;;;;;5076230;28;20036;-73
2021/06/16 10:07:28;;;;;;;3.97;3.45;;;34.30;73.20;;;;;;5082659;28;20045;-73
2021/06/16 10:10:11;;;;;;;5.20;4.20;;;33.90;70.70;;;;;;5083141;28;20035;-73
2021/06/16 10:12:40;;;;;;;10.07;4.28;;;33.00;71.30;;;;;;5089074;28;20058;-73
2021/06/16 10:15:09;;;;;;;5.15;3.95;;;33.00;71.70;;;;;;5091719;28;20039;-73
2021/06/16 10:17:36;;;;;;;5.20;4.43;;;33.50;72.50;;;;;;5079227;28;20016;-73
2021/06/16 10:20:03;;;;;;;6.25;4.45;;;33.40;72.10;;;;;;5093526;28;20023;-73
2021/06/16 10:22:29;;;;;;;6.63;4.50;;;33.60;71.40;;;;;;5073048;28;20036;-73
2021/06/16 10:24:55;;;;;;;5.13;4.47;;;33.50;71.90;;;;;;5086427;28;20027;-73
2021/06/16 10:27:29;;;;;;;7.10;4.78;;;34.10;71.40;;;;;;5084605;28;20020;-73
2021/06/16 10:30:02;;;;;;;9.90;4.50;;;33.60;72.30;;;;;;5083909;28;20511;-73
2021/06/16 10:32:36;;;;;;;7.28;4.53;;;33.90;73.20;;;;;;5092626;28;20059;-73
2021/06/16 10:35:03;;;;;;;9.15;4.93;;;33.80;72.90;;;;;;5087836;28;20045;-73
2021/06/16 10:37:33;;;;;;;5.68;5.10;;;33.80;71.80;;;;;;5093420;28;20024;-72
2021/06/16 10:40:21;;;;;;;15.35;5.20;;;33.10;73.80;;;;;;5074951;28;20493;-72
2021/06/16 10:45:46;;;;;;;6.25;5.55;;;32.90;74.00;;;;;;5120410;27;20141;-73
2021/06/16 10:48:12;;;;;;;8.15;4.80;;;31.90;76.90;;;;;;5090995;28;20113;-74
2021/06/16 10:50:59;;;;;;;6.28;5.20;;;32.20;77.00;;;;;;5089555;28;20063;-73
2021/06/16 10:53:24;;;;;;;11.68;5.00;;;31.40;78.60;;;;;;5088766;28;20024;-73
2021/06/16 10:58:31;;;;;;;8.93;6.30;;;31.20;84.60;;;;;;5125419;27;20531;-73
2021/06/16 11:01:16;;;;;;;9.73;6.03;;;31.10;81.30;;;;;;5082727;28;20031;-73
2021/06/16 11:06:36;;;;;;;10.95;6.55;;;31.30;81.80;;;;;;5120778;27;20133;-73
2021/06/16 11:09:05;;;;;;;6.90;5.65;;;31.10;82.60;;;;;;5099948;28;20107;-73
2021/06/16 11:11:53;;;;;;;8.32;5.70;;;31.30;85.00;;;;;;5101746;28;20020;-73
2021/06/16 11:14:39;;;;;;;5.88;5.28;;;31.20;83.50;;;;;;5108115;28;20114;-72
2021/06/16 11:17:09;;;;;;;9.90;6.60;;;30.70;86.90;;;;;;5090238;28;20024;-73
2021/06/16 11:25:21;;;;;;;8.52;6.30;;;31.30;83.80;;;;;;5116653;27;20148;-73
2021/06/16 11:28:11;;;;;;;7.97;5.35;;;31.40;84.90;;;;;;5103679;28;20032;-73
2021/06/16 11:36:02;;;;;;;10.43;6.35;;;31.30;84.80;;;;;;5117502;27;20187;-72
2021/06/16 11:38:32;;;;;;;10.35;6.50;;;31.60;85.20;;;;;;5103221;28;20043;-73
2021/06/16 11:41:05;;;;;;;7.50;6.30;;;31.80;82.10;;;;;;5088092;28;20444;-73
2021/06/16 11:43:53;;;;;;;8.05;6.43;;;31.80;82.40;;;;;;5089430;28;20028;-73
2021/06/16 11:46:34;;;;;;;10.77;7.05;;;31.50;84.20;;;;;;5089075;28;20439;-73
2021/06/16 11:49:13;;;;;;;9.40;6.50;;;31.60;85.00;;;;;;5086383;28;20035;-73
2021/06/16 11:51:47;;;;;;;12.95;6.45;;;32.00;84.80;;;;;;5088323;28;20028;-73
2021/06/16 11:54:24;;;;;;;9.02;6.85;;;31.90;84.50;;;;;;5090077;28;20051;-73
2021/06/16 11:56:52;;;;;;;9.15;7.00;;;31.40;83.90;;;;;;5087626;28;20032;-73
2021/06/16 11:59:30;;;;;;;10.85;7.45;;;31.20;83.70;;;;;;5087493;28;20085;-74
2021/06/16 12:02:08;;;;;;;8.52;7.30;;;31.40;85.30;;;;;;5087977;28;20020;-73
2021/06/16 12:05:12;;;;;;;11.32;7.43;;;31.80;85.50;;;;;;5088211;28;20074;-73
2021/06/16 12:07:50;;;;;;;8.95;7.50;;;31.60;83.00;;;;;;5088654;28;20020;-72
2021/06/16 12:10:21;;;;;;;12.38;7.25;;;31.50;84.50;;;;;;5089336;28;20104;-73
2021/06/16 12:12:51;;;;;;;11.45;8.43;;;31.90;85.50;;;;;;5104106;28;20024;-73
2021/06/16 12:15:22;;;;;;;10.70;7.53;;;31.60;84.50;;;;;;5089501;28;20034;-73
2021/06/16 12:18:13;;;;;;;11.60;7.65;;;31.50;84.70;;;;;;5084539;28;20123;-73
2021/06/16 12:20:48;;;;;;;12.52;7.53;;;31.50;87.70;;;;;;5088431;28;20021;-73
2021/06/16 12:23:22;;;;;;;8.20;6.80;;;31.70;86.60;;;;;;5087164;28;20469;-73
2021/06/16 12:25:49;;;;;;;8.48;7.07;;;31.80;86.80;;;;;;5089000;28;20031;-73
2021/06/16 12:28:15;;;;;;;8.13;6.38;;;31.60;87.40;;;;;;5087723;28;20025;-72
2021/06/16 12:30:42;;;;;;;13.68;7.53;;;31.70;86.30;;;;;;5088439;28;20037;-73
2021/06/16 12:33:19;;;;;;;8.32;7.53;;;31.40;85.20;;;;;;5088641;28;20024;-73
2021/06/16 12:35:56;;;;;;;8.40;7.40;;;31.00;86.60;;;;;;5075773;28;20036;-73
2021/06/16 12:38:43;;;;;;;8.45;7.35;;;31.30;86.30;;;;;;5087906;28;20031;-71
2021/06/16 12:41:28;;;;;;;8.77;6.85;;;31.70;86.20;;;;;;5084879;28;20085;-70
2021/06/16 12:44:23;;;;;;;8.93;6.95;;;31.90;85.20;;;;;;5077543;28;20067;-70
2021/06/16 12:46:53;;;;;;;8.98;7.05;;;31.70;86.80;;;;;;5076913;28;20059;-70
2021/06/16 12:49:19;;;;;;;10.32;7.43;;;31.80;88.00;;;;;;5074670;28;20032;-70
2021/06/16 12:51:50;;;;;;;8.93;7.85;;;31.40;88.90;;;;;;5072470;28;20024;-70
2021/06/16 12:54:25;;;;;;;10.90;8.13;;;31.20;88.20;;;;;;5075467;28;20032;-70
2021/06/16 12:57:03;;;;;;;9.95;7.85;;;31.40;88.70;;;;;;5074740;28;20111;-69
2021/06/16 12:59:34;;;;;;;11.38;7.70;;;31.40;89.60;;;;;;5073810;28;20422;-70
2021/06/16 13:01:59;;;;;;;12.38;8.38;;;31.60;90.90;;;;;;5071695;28;20021;-70
2021/06/16 13:04:49;;;;;;;9.93;7.30;;;31.60;87.90;;;;;;5073824;28;20448;-70
2021/06/16 13:07:16;;;;;;;9.50;7.68;;;31.40;89.80;;;;;;5075148;28;20070;-70
2021/06/16 13:09:57;;;;;;;8.30;7.43;;;31.60;89.30;;;;;;5074025;28;20428;-70
2021/06/16 13:12:23;;;;;;;10.35;7.40;;;32.00;89.00;;;;;;5071126;28;20021;-70